createdAt,value
2022-12-22T00:06:23.402Z,7.80
2022-12-22T00:20:23.630Z,7.40
2022-12-22T00:34:25.673Z,7.60
2022-12-22T00:48:23.356Z,7.40
2022-12-22T01:02:23.566Z,7.05
2022-12-22T01:16:23.459Z,6.80
2022-12-22T01:30:23.420Z,6.50
2022-12-22T01:44:23.384Z,6.40
2022-12-22T01:58:23.381Z,6.50
2022-12-22T02:12:23.399Z,6.10
2022-12-22T02:26:23.406Z,6.20
2022-12-22T02:40:23.431Z,6.20
2022-12-22T02:54:23.409Z,5.40
2022-12-22T03:08:23.429Z,5.60
2022-12-22T03:22:23.419Z,5.40
2022-12-22T03:36:23.443Z,4.80
2022-12-22T03:50:23.522Z,4.70
2022-12-22T04:04:23.505Z,4.60
2022-12-22T04:18:23.525Z,4.10
2022-12-22T04:32:23.557Z,4.20
2022-12-22T04:46:23.607Z,4.50
2022-12-22T05:00:23.643Z,3.90
2022-12-22T05:14:23.618Z,3.60
2022-12-22T05:28:23.675Z,3.50
2022-12-22T05:42:23.726Z,3.60
2022-12-22T05:56:23.716Z,3.20
2022-12-22T06:10:23.743Z,3.30
2022-12-22T06:24:23.745Z,3.60
2022-12-22T06:38:23.740Z,4.60
2022-12-22T06:53:23.751Z,5.70
2022-12-22T07:08:23.752Z,6.40
2022-12-22T07:24:23.881Z,6.30
2022-12-22T07:39:23.814Z,6.40
2022-12-22T07:54:23.799Z,7.50
2022-12-22T08:09:23.849Z,7.70
2022-12-22T08:24:23.871Z,8.60
2022-12-22T08:39:23.864Z,9.20
2022-12-22T08:54:23.868Z,9.90
2022-12-22T09:09:23.857Z,9.80
2022-12-22T09:24:23.888Z,10.20
2022-12-22T09:39:28.756Z,10.10
2022-12-22T09:54:23.910Z,9.30
2022-12-22T10:09:48.001Z,9.10
2022-12-22T10:24:23.906Z,9.00
2022-12-22T10:39:23.943Z,8.60
2022-12-22T10:54:23.931Z,8.30
2022-12-22T11:09:33.434Z,8.40
2022-12-22T11:24:23.954Z,7.90
2022-12-22T11:39:23.939Z,7.80
2022-12-22T11:54:23.971Z,7.40
2022-12-22T12:09:23.996Z,11.20
2022-12-22T12:24:24.011Z,20.80
2022-12-22T12:39:24.014Z,22.60
2022-12-22T12:54:24.036Z,23.80
2022-12-22T13:10:24.098Z,20.90
2022-12-22T13:26:24.087Z,18.80
2022-12-22T13:41:27.374Z,15.70
2022-12-22T13:56:24.136Z,14.70
2022-12-22T14:11:24.134Z,13.60
2022-12-22T14:19:15.009Z,12.50
2022-12-22T14:23:13.039Z,12.70
2022-12-22T14:37:12.508Z,11.90
2022-12-22T14:52:12.516Z,11.30
2022-12-22T15:07:30.039Z,10.90
2022-12-22T15:22:12.547Z,10.30
2022-12-22T15:37:12.567Z,9.50
2022-12-22T15:52:12.562Z,9.20
2022-12-22T16:07:12.683Z,9.00
2022-12-22T16:21:12.688Z,9.00
2022-12-22T16:35:12.720Z,8.90
2022-12-22T16:49:12.791Z,8.80
2022-12-22T17:03:12.904Z,8.70
2022-12-22T17:17:12.756Z,8.40
2022-12-22T17:31:13.149Z,8.60
2022-12-22T17:45:13.727Z,8.50
2022-12-22T17:59:13.115Z,9.10
2022-12-22T18:13:13.763Z,9.40
2022-12-22T18:27:14.149Z,9.50
2022-12-22T18:41:13.233Z,9.60
2022-12-22T18:55:13.262Z,9.40
2022-12-22T19:09:13.395Z,9.30
2022-12-22T19:23:13.401Z,9.90
2022-12-22T19:37:13.402Z,9.70
2022-12-22T19:51:17.433Z,9.50
2022-12-22T20:05:15.274Z,8.90
2022-12-22T20:19:13.545Z,8.90
2022-12-22T20:33:13.565Z,9.70
2022-12-22T20:47:18.745Z,10.60
2022-12-22T21:01:13.688Z,11.10
2022-12-22T21:15:13.597Z,12.90
2022-12-22T21:29:13.564Z,13.20
2022-12-22T21:43:13.590Z,15.90
2022-12-22T21:57:13.570Z,17.40
2022-12-22T22:11:13.577Z,18.90
2022-12-22T22:25:13.579Z,17.40
2022-12-22T22:39:13.597Z,16.30
2022-12-22T22:53:13.613Z,16.50
2022-12-22T23:07:13.694Z,15.70
2022-12-22T23:21:13.673Z,15.20
2022-12-22T23:35:13.648Z,15.30
2022-12-22T23:49:13.685Z,14.10
